Time;durP1;ratioP1;P1;durP2;ratioP2;P2;SDS_P1;SDS_P2;PMS_P1;PMS_P2;Temp;Humidity;BMP_temperature;BMP_pressure;BME280_temperature;BME280_humidity;BME280_pressure;Samples;Min_cycle;Max_cycle;Signal;HPM_P1;HPM_P2
2022/07/09 00:00:38;;;;;;;7.22;5.40;;;17.20;51.70;;;17.60;44.94;98740.72;5007688;28;20231;-43
2022/07/09 00:03:05;;;;;;;11.75;9.75;;;17.20;51.80;;;17.56;45.17;98737.56;5008356;28;20056;-42
2022/07/09 00:05:33;;;;;;;9.43;7.38;;;17.20;52.00;;;17.54;45.36;98742.28;5008259;28;20050;-42
2022/07/09 00:08:01;;;;;;;7.82;6.43;;;17.10;52.30;;;17.48;45.40;98740.31;5006855;28;20058;-41
2022/07/09 00:10:30;;;;;;;8.25;6.85;;;17.00;52.60;;;17.47;45.52;98738.66;5007693;28;20458;-41
2022/07/09 00:12:58;;;;;;;12.57;7.43;;;17.00;52.60;;;17.46;45.41;98742.34;5008119;28;20054;-44
2022/07/09 00:15:26;;;;;;;8.63;6.93;;;17.10;52.50;;;17.47;45.66;98744.03;5008801;28;20062;-41
2022/07/09 00:17:53;;;;;;;9.98;6.30;;;17.10;52.60;;;17.43;45.76;98735.47;5008410;28;20045;-42
2022/07/09 00:20:21;;;;;;;11.02;7.53;;;17.00;52.60;;;17.41;45.68;98728.56;5007424;28;20054;-42
2022/07/09 00:22:49;;;;;;;9.52;5.15;;;17.00;52.60;;;17.39;45.67;98726.09;5008975;28;20057;-42
2022/07/09 00:25:17;;;;;;;6.30;4.00;;;17.00;52.60;;;17.38;45.50;98731.63;5008550;28;20420;-41
2022/07/09 00:27:45;;;;;;;6.35;3.92;;;17.00;52.60;;;17.35;45.66;98723.91;5009865;28;20525;-42
2022/07/09 00:30:13;;;;;;;6.35;5.35;;;16.90;52.80;;;17.31;45.76;98732.34;5007561;28;20053;-42
2022/07/09 00:32:41;;;;;;;7.22;4.93;;;16.90;52.90;;;17.28;45.98;98737.25;5021932;28;20259;-44
2022/07/09 00:35:09;;;;;;;7.95;5.10;;;16.80;53.10;;;17.24;46.11;98731.38;5007608;28;20318;-42
2022/07/09 00:37:37;;;;;;;4.57;3.72;;;16.80;53.50;;;17.22;46.11;98729.91;5008033;28;20068;-42
2022/07/09 00:40:06;;;;;;;5.25;3.63;;;16.70;53.50;;;17.20;46.02;98724.69;5008115;28;20056;-42
2022/07/09 00:42:34;;;;;;;4.90;3.60;;;16.80;53.40;;;17.22;46.18;98725.34;5006759;28;20060;-42
2022/07/09 00:45:01;;;;;;;5.60;4.10;;;16.80;53.10;;;17.24;46.25;98722.47;5007347;28;20046;-41
2022/07/09 00:47:29;;;;;;;4.50;3.70;;;16.90;53.30;;;17.20;46.12;98718.47;5006489;28;20351;-42
2022/07/09 00:49:57;;;;;;;6.05;3.75;;;16.80;53.30;;;17.14;46.25;98722.72;5007292;28;20063;-42
2022/07/09 00:52:25;;;;;;;5.43;4.25;;;16.70;53.70;;;17.15;46.36;98710.09;5007479;28;20053;-42
2022/07/09 00:54:56;;;;;;;6.05;4.90;;;16.70;53.90;;;17.12;46.20;98708.59;5004937;28;20450;-41
2022/07/09 00:57:24;;;;;;;4.97;4.45;;;16.70;54.10;;;17.10;46.28;98710.63;5007579;28;20045;-41
2022/07/09 00:59:52;;;;;;;5.18;3.72;;;16.70;54.10;;;17.04;46.69;98705.94;5007970;28;20050;-41
2022/07/09 01:02:22;;;;;;;4.25;3.28;;;16.60;54.10;;;16.99;46.64;98706.47;5005721;28;20251;-41
2022/07/09 01:04:50;;;;;;;4.53;3.20;;;16.50;54.50;;;16.95;46.76;98702.47;5006450;28;20256;-41
2022/07/09 01:07:19;;;;;;;4.25;3.30;;;16.50;54.40;;;16.92;46.65;98700.97;5006154;28;20057;-42
2022/07/09 01:09:47;;;;;;;4.60;3.47;;;16.40;54.30;;;16.90;46.80;98699.44;5006254;28;20366;-42
2022/07/09 01:12:15;;;;;;;8.07;3.97;;;16.40;54.40;;;16.90;46.67;98703.00;5006570;28;20452;-41
2022/07/09 01:14:43;;;;;;;7.57;3.97;;;16.50;54.10;;;16.87;46.71;98697.13;5007704;28;20058;-43
2022/07/09 01:17:10;;;;;;;5.22;3.88;;;16.40;54.10;;;16.81;46.90;98692.41;5006290;28;20225;-41
2022/07/09 01:19:38;;;;;;;7.55;4.32;;;16.40;55.40;;;16.77;47.17;98699.16;5006771;28;20264;-41
2022/07/09 01:22:06;;;;;;;8.57;6.55;;;16.30;54.80;;;16.72;47.22;98689.75;5007588;28;20046;-42
2022/07/09 01:24:34;;;;;;;10.07;7.65;;;16.30;55.10;;;16.71;47.30;98693.47;5006444;28;20055;-41
2022/07/09 01:27:02;;;;;;;12.50;7.10;;;16.30;55.10;;;16.68;47.49;98685.75;5006511;28;20046;-42
2022/07/09 01:29:30;;;;;;;8.63;6.82;;;16.20;55.20;;;16.66;47.49;98682.41;5007462;28;20053;-43
2022/07/09 01:31:58;;;;;;;12.93;7.47;;;16.20;55.40;;;16.65;47.66;98679.88;5006773;28;20064;-43
2022/07/09 01:34:26;;;;;;;16.75;9.45;;;16.20;55.40;;;16.65;47.61;98688.81;5006155;28;20382;-43
2022/07/09 01:36:54;;;;;;;18.17;11.43;;;16.20;55.20;;;16.67;47.53;98673.34;5006996;28;20052;-41
2022/07/09 01:39:22;;;;;;;19.80;13.90;;;16.30;55.40;;;16.67;47.37;98683.22;5005573;28;20053;-41
2022/07/09 01:41:50;;;;;;;17.55;13.05;;;16.20;55.30;;;16.63;47.90;98677.34;5004652;28;20064;-42
2022/07/09 01:44:17;;;;;;;20.80;12.52;;;16.20;55.50;;;16.59;47.83;98673.34;5007042;28;20049;-42
2022/07/09 01:46:45;;;;;;;16.13;12.10;;;16.20;55.70;;;16.58;47.61;98671.69;5005796;28;20057;-41
2022/07/09 01:49:14;;;;;;;18.70;13.35;;;16.20;55.50;;;16.58;47.98;98670.84;5007594;28;20058;-43
2022/07/09 01:51:42;;;;;;;16.50;12.00;;;16.20;55.80;;;16.56;48.00;98675.56;5005679;28;20064;-42
2022/07/09 01:54:09;;;;;;;12.98;10.43;;;16.10;55.90;;;16.51;47.99;98668.84;5007436;28;20052;-41
2022/07/09 01:56:37;;;;;;;11.88;9.10;;;16.10;56.00;;;16.52;48.17;98669.69;5005293;28;20046;-41
2022/07/09 01:59:05;;;;;;;11.07;8.68;;;16.10;56.00;;;16.49;48.11;98664.66;5005268;28;20050;-41
2022/07/09 02:01:33;;;;;;;10.48;8.15;;;16.00;56.00;;;16.43;48.29;98666.19;5004673;28;20050;-41
2022/07/09 02:04:01;;;;;;;10.82;7.68;;;16.00;56.20;;;16.42;48.59;98660.97;5005522;28;20056;-41
2022/07/09 02:06:29;;;;;;;11.88;7.55;;;16.00;56.30;;;16.36;48.11;98659.00;5021013;28;20052;-42
2022/07/09 02:08:57;;;;;;;12.38;7.28;;;15.90;56.50;;;16.31;48.63;98656.84;5025920;28;20053;-43
2022/07/09 02:11:24;;;;;;;7.50;6.32;;;15.80;56.60;;;16.27;48.49;98652.81;5025103;28;20060;-43
2022/07/09 02:13:52;;;;;;;8.40;6.53;;;15.80;56.60;;;16.28;48.55;98657.16;5025964;28;20263;-42
2022/07/09 02:16:20;;;;;;;11.55;6.68;;;15.80;56.60;;;16.30;48.76;98653.31;5026159;28;20049;-41
2022/07/09 02:18:48;;;;;;;11.05;6.18;;;15.90;56.70;;;16.32;48.61;98651.31;5026535;28;20046;-44
2022/07/09 02:21:16;;;;;;;10.07;5.88;;;15.90;56.70;;;16.31;48.76;98651.47;5026434;28;20045;-42
2022/07/09 02:23:45;;;;;;;8.90;5.90;;;15.90;56.90;;;16.28;48.75;98655.31;5026329;28;20049;-42
2022/07/09 02:26:13;;;;;;;5.60;4.63;;;15.80;56.70;;;16.28;48.94;98657.16;5026635;28;20335;-43
2022/07/09 02:28:41;;;;;;;8.70;4.47;;;15.80;56.80;;;16.29;48.53;98654.31;5026764;28;20608;-42
2022/07/09 02:31:09;;;;;;;5.90;4.30;;;15.90;56.70;;;16.28;48.71;98646.44;5025729;28;20053;-42
2022/07/09 02:33:37;;;;;;;5.72;4.03;;;15.80;56.80;;;16.24;48.66;98661.22;5025831;28;20062;-44
2022/07/09 02:36:05;;;;;;;6.15;4.40;;;15.80;56.90;;;16.24;48.86;98653.16;5028796;28;20033;-42
2022/07/09 02:38:33;;;;;;;6.97;3.80;;;15.80;57.00;;;16.22;49.01;98660.56;5028851;28;20045;-42
2022/07/09 02:41:01;;;;;;;7.40;3.65;;;15.80;57.30;;;16.19;49.00;98656.38;5028997;28;20045;-41
2022/07/09 02:43:29;;;;;;;5.63;2.88;;;15.70;57.20;;;16.15;49.03;98657.72;5029164;28;20045;-41
2022/07/09 02:45:56;;;;;;;4.00;3.03;;;15.80;57.30;;;16.15;48.83;98652.34;5030312;28;20053;-42
2022/07/09 02:48:25;;;;;;;6.90;3.20;;;15.70;57.20;;;16.11;48.98;98657.22;5029109;28;20243;-42
2022/07/09 02:50:53;;;;;;;6.22;3.30;;;15.70;56.90;;;16.13;48.77;98655.22;5028878;28;20055;-42
2022/07/09 02:53:22;;;;;;;4.72;2.95;;;15.70;56.50;;;16.15;48.69;98657.72;5028109;28;20320;-41
2022/07/09 02:55:50;;;;;;;3.72;2.88;;;15.70;56.40;;;16.11;48.79;98653.69;5029143;28;20360;-41
2022/07/09 02:58:18;;;;;;;5.93;3.47;;;15.70;56.50;;;16.05;48.62;98660.63;5028147;28;20053;-41
2022/07/09 03:00:45;;;;;;;4.82;3.45;;;15.60;56.90;;;15.98;48.96;98656.09;5029221;28;20083;-41
2022/07/09 03:03:14;;;;;;;4.35;3.40;;;15.50;57.40;;;15.92;49.04;98661.13;5029027;28;20060;-41
2022/07/09 03:05:42;;;;;;;4.28;2.80;;;15.50;57.70;;;15.91;49.42;98653.25;5028730;28;20374;-41
2022/07/09 03:08:10;;;;;;;5.50;3.03;;;15.50;57.80;;;15.87;49.52;98657.28;5028373;28;20060;-42
2022/07/09 03:10:38;;;;;;;3.47;2.85;;;15.40;57.90;;;15.84;49.73;98653.09;5028866;28;20071;-41
2022/07/09 03:13:05;;;;;;;4.50;2.78;;;15.40;58.00;;;15.84;49.39;98658.47;5028892;28;20057;-43
2022/07/09 03:15:39;;;;;;;6.25;3.20;;;15.40;57.90;;;15.83;49.41;98659.47;5029080;28;20275;-41
2022/07/09 03:18:08;;;;;;;6.43;3.10;;;15.40;58.00;;;15.78;49.63;98661.84;5028266;28;20313;-42
2022/07/09 03:20:36;;;;;;;6.53;3.78;;;15.30;58.10;;;15.74;49.79;98664.00;5028422;28;20053;-41
2022/07/09 03:23:05;;;;;;;7.03;3.60;;;15.30;58.40;;;15.75;49.91;98660.31;5029119;28;20049;-42
2022/07/09 03:25:33;;;;;;;5.97;3.33;;;15.30;58.30;;;15.75;49.98;98656.78;5029019;28;20057;-43
2022/07/09 03:28:01;;;;;;;6.00;4.47;;;15.30;58.40;;;15.76;49.94;98663.84;5028399;28;20218;-42
2022/07/09 03:30:29;;;;;;;5.80;3.72;;;15.40;58.30;;;15.75;49.94;98656.78;5028232;28;20056;-41
2022/07/09 03:32:56;;;;;;;3.83;2.72;;;15.40;58.30;;;15.73;49.99;98665.00;5028556;28;20184;-41
2022/07/09 03:35:24;;;;;;;5.57;3.33;;;15.30;58.50;;;15.71;50.04;98661.63;5028078;28;20053;-40
2022/07/09 03:37:52;;;;;;;7.15;3.47;;;15.30;58.70;;;15.67;50.29;98667.50;5027733;28;20049;-41
2022/07/09 03:40:20;;;;;;;7.72;4.03;;;15.20;58.90;;;15.63;50.31;98661.63;5028543;28;20354;-41
2022/07/09 03:42:48;;;;;;;4.07;3.67;;;15.20;59.10;;;15.64;50.35;98667.84;5027339;28;20298;-42
2022/07/09 03:45:16;;;;;;;4.97;3.78;;;15.20;59.00;;;15.65;50.23;98669.53;5028816;28;20049;-40
2022/07/09 03:47:45;;;;;;;4.93;3.22;;;15.20;59.00;;;15.67;50.39;98671.03;5026968;28;20237;-42
2022/07/09 03:50:12;;;;;;;7.22;3.30;;;15.20;59.10;;;15.69;50.70;98666.31;5028227;28;20240;-41
2022/07/09 03:52:40;;;;;;;4.85;3.50;;;15.30;59.10;;;15.72;50.54;98668.69;5027310;28;20052;-42
2022/07/09 03:55:09;;;;;;;7.60;3.78;;;15.40;59.00;;;15.73;50.37;98665.00;5024222;28;20060;-41
2022/07/09 03:57:36;;;;;;;7.85;4.68;;;15.30;58.80;;;15.70;50.37;98673.38;5027132;28;20042;-41
2022/07/09 04:00:08;;;;;;;7.03;4.05;;;15.30;58.80;;;15.71;50.33;98666.16;5027938;28;20063;-43
2022/07/09 04:02:45;;;;;;;6.57;3.45;;;15.40;59.00;;;15.71;49.99;98672.38;5026699;28;20057;-41
2022/07/09 04:05:13;;;;;;;5.78;3.08;;;15.40;58.20;;;15.72;50.01;98673.19;5028553;28;20041;-45
2022/07/09 04:07:41;;;;;;;6.53;3.42;;;15.40;58.10;;;15.74;49.96;98672.06;5027905;28;20073;-42
2022/07/09 04:10:09;;;;;;;3.75;3.13;;;15.40;57.80;;;15.73;50.04;98675.75;5027812;28;20358;-41
2022/07/09 04:12:37;;;;;;;4.78;3.22;;;15.40;57.80;;;15.71;50.12;98671.53;5027011;28;20065;-42
2022/07/09 04:15:06;;;;;;;7.50;3.30;;;15.30;58.30;;;15.67;50.43;98671.03;5027759;28;20057;-42
2022/07/09 04:17:34;;;;;;;5.40;3.20;;;15.30;58.80;;;15.64;50.27;98682.09;5028004;28;20037;-43
2022/07/09 04:20:03;;;;;;;4.25;3.17;;;15.20;58.90;;;15.63;50.83;98676.91;5026504;28;20049;-43
2022/07/09 04:22:31;;;;;;;5.40;3.17;;;15.20;59.20;;;15.61;50.76;98669.03;5028335;28;20651;-41
2022/07/09 04:24:59;;;;;;;4.65;3.20;;;15.20;59.30;;;15.61;50.89;98679.75;5027996;28;20054;-41
2022/07/09 04:27:27;;;;;;;3.65;3.00;;;15.20;59.30;;;15.63;50.95;98676.91;5026853;28;20049;-42
2022/07/09 04:29:55;;;;;;;5.55;3.47;;;15.30;59.20;;;15.64;50.79;98687.47;5026696;28;20037;-43
2022/07/09 04:32:23;;;;;;;7.15;3.08;;;15.30;59.20;;;15.68;50.86;98682.59;5026125;28;20355;-41
2022/07/09 04:34:51;;;;;;;4.90;3.22;;;15.40;59.30;;;15.71;51.06;98684.97;5027607;28;20053;-43
2022/07/09 04:37:18;;;;;;;6.35;3.75;;;15.40;59.10;;;15.74;51.03;98685.50;5027376;28;20059;-41
2022/07/09 04:39:46;;;;;;;4.45;2.90;;;15.50;59.30;;;15.75;51.01;98684.47;5026999;28;20049;-41
2022/07/09 04:42:14;;;;;;;5.00;2.88;;;15.40;59.30;;;15.75;51.41;98681.78;5027358;28;20049;-41
2022/07/09 04:44:42;;;;;;;3.90;3.05;;;15.50;59.80;;;15.75;51.77;98678.28;5026682;28;20057;-41
2022/07/09 04:47:11;;;;;;;5.55;3.63;;;15.50;60.40;;;15.77;52.00;98678.94;5028404;28;20067;-42
2022/07/09 04:49:38;;;;;;;6.70;3.33;;;15.50;60.70;;;15.79;52.35;98684.16;5025888;28;20051;-42
2022/07/09 04:52:07;;;;;;;6.05;3.67;;;15.50;61.30;;;15.80;52.36;98680.44;5041156;28;20060;-41
2022/07/09 04:54:35;;;;;;;4.45;3.42;;;15.50;61.20;;;15.84;52.35;98679.09;5027670;28;20053;-41
2022/07/09 04:57:03;;;;;;;6.53;2.80;;;15.60;61.00;;;15.90;52.13;98687.31;5026509;28;20056;-41
2022/07/09 04:59:31;;;;;;;4.43;3.22;;;15.70;60.90;;;15.98;52.14;98682.94;5026488;28;20041;-42
2022/07/09 05:01:59;;;;;;;4.82;3.22;;;15.80;60.40;;;16.02;51.92;98679.75;5026529;28;20046;-42
2022/07/09 05:04:27;;;;;;;6.13;3.20;;;15.80;60.20;;;16.08;51.82;98680.91;5026140;28;20049;-42
2022/07/09 05:06:55;;;;;;;5.10;2.72;;;15.80;59.90;;;16.12;51.93;98676.88;5027773;28;20248;-42
2022/07/09 05:09:22;;;;;;;5.68;3.90;;;16.00;59.90;;;16.18;52.08;98680.72;5026638;28;20256;-41
2022/07/09 05:11:50;;;;;;;5.75;2.75;;;16.00;60.10;;;16.22;52.20;98682.88;5026134;28;20049;-41
2022/07/09 05:14:18;;;;;;;2.80;2.58;;;16.10;60.40;;;16.26;52.37;98672.63;5026672;28;20056;-42
2022/07/09 05:16:46;;;;;;;5.72;2.95;;;16.10;60.70;;;16.33;52.20;98673.63;5025916;28;20050;-42
2022/07/09 05:19:14;;;;;;;6.97;3.50;;;16.20;60.60;;;16.39;52.32;98677.47;5025357;28;20060;-42
2022/07/09 05:21:42;;;;;;;4.32;2.80;;;16.20;60.30;;;16.44;52.30;98672.41;5026457;28;20072;-41
2022/07/09 05:24:10;;;;;;;4.13;2.78;;;16.40;60.20;;;16.52;52.12;98669.69;5027591;28;20041;-45
2022/07/09 05:26:38;;;;;;;3.20;2.85;;;16.40;59.80;;;16.58;52.05;98669.00;5026007;28;20061;-42
2022/07/09 05:29:05;;;;;;;8.35;3.28;;;16.50;59.80;;;16.65;51.92;98669.13;5026012;28;20061;-42
2022/07/09 05:31:33;;;;;;;6.40;2.63;;;16.60;59.50;;;16.72;51.51;98664.72;5025219;28;20041;-42
2022/07/09 05:34:05;;;;;;;7.03;2.60;;;16.70;59.10;;;16.72;51.43;98664.72;5025926;28;20049;-42
2022/07/09 05:36:33;;;;;;;4.82;2.95;;;16.70;58.70;;;16.76;51.13;98665.22;5026244;28;20056;-43
2022/07/09 05:39:01;;;;;;;4.15;2.47;;;16.70;58.10;;;16.86;50.89;98671.25;5025665;28;20043;-41
2022/07/09 05:41:29;;;;;;;5.70;3.72;;;16.80;57.70;;;16.88;50.60;98679.97;5025624;28;20053;-41
2022/07/09 05:43:57;;;;;;;4.78;3.00;;;16.90;57.30;;;16.81;50.84;98674.44;5024194;28;20053;-42
2022/07/09 05:46:25;;;;;;;6.15;3.10;;;16.80;57.60;;;16.89;50.86;98677.09;5026856;28;20045;-44
2022/07/09 05:48:53;;;;;;;3.83;2.63;;;16.80;57.80;;;16.88;50.49;98677.28;5026604;28;20332;-42
2022/07/09 05:51:21;;;;;;;9.65;2.78;;;16.90;57.20;;;16.98;50.43;98690.50;5025602;28;20244;-42
2022/07/09 05:53:49;;;;;;;4.53;3.15;;;16.90;57.20;;;17.07;50.31;98678.69;5025837;28;20059;-41
2022/07/09 05:56:17;;;;;;;6.85;2.90;;;17.10;57.10;;;17.16;50.11;98693.78;5026414;28;20058;-43
2022/07/09 05:58:44;;;;;;;5.70;4.28;;;17.20;56.70;;;17.20;50.08;98681.63;5024650;28;20369;-41
2022/07/09 06:01:13;;;;;;;5.03;2.88;;;17.20;56.80;;;17.17;50.11;98686.53;5025546;28;20055;-41
2022/07/09 06:03:42;;;;;;;5.43;3.10;;;17.20;56.90;;;17.17;50.36;98690.03;5026562;28;20053;-40
2022/07/09 06:06:10;;;;;;;4.18;2.67;;;17.20;57.20;;;17.25;50.09;98686.47;5026828;28;20037;-41
2022/07/09 06:08:39;;;;;;;3.42;2.88;;;17.30;57.00;;;17.35;50.04;98683.53;5025522;28;20053;-41
2022/07/09 06:11:07;;;;;;;5.53;2.80;;;17.40;56.80;;;17.45;50.26;98684.16;5028026;28;20397;-41
2022/07/09 06:13:34;;;;;;;8.07;2.40;;;17.60;56.50;;;17.49;49.86;98678.22;5030032;28;20264;-44
2022/07/09 06:16:02;;;;;;;3.40;2.70;;;17.60;56.30;;;17.59;49.72;98688.75;5030152;28;20058;-40
2022/07/09 06:18:30;;;;;;;6.18;2.55;;;17.70;55.90;;;17.68;49.51;98676.91;5030494;28;20049;-42
2022/07/09 06:21:00;;;;;;;4.07;2.90;;;17.80;55.70;;;17.72;49.41;98677.38;5045514;28;20051;-40
2022/07/09 06:23:28;;;;;;;4.85;2.83;;;17.80;55.60;;;17.80;49.21;98680.00;5029363;28;20048;-40
2022/07/09 06:25:56;;;;;;;4.22;2.60;;;17.90;56.10;;;17.80;48.88;98681.84;5030490;28;20049;-42
2022/07/09 06:28:24;;;;;;;3.45;2.92;;;17.90;55.20;;;17.85;48.86;98682.97;5028898;28;20068;-41
2022/07/09 06:30:52;;;;;;;5.65;3.20;;;17.90;55.10;;;17.93;48.91;98675.84;5029091;28;20065;-42
2022/07/09 06:33:19;;;;;;;4.43;3.17;;;18.00;55.10;;;18.01;49.62;98682.00;5029531;28;20053;-41
2022/07/09 06:35:47;;;;;;;4.43;3.72;;;18.10;56.10;;;18.08;50.25;98680.22;5030342;28;20071;-43
2022/07/09 06:38:15;;;;;;;7.35;3.85;;;18.20;56.70;;;18.17;50.49;98683.69;5028675;28;20392;-42
2022/07/09 06:40:43;;;;;;;6.50;3.30;;;18.30;57.00;;;18.24;50.47;98678.41;5028927;28;20053;-41
2022/07/09 06:43:12;;;;;;;4.65;2.97;;;18.40;57.00;;;18.31;50.30;98676.63;5028780;28;20045;-41
2022/07/09 06:45:53;;;;;;;6.00;4.05;;;18.50;56.80;;;18.40;50.10;98677.41;5028010;28;20235;-40
2022/07/09 06:48:21;;;;;;;6.07;3.60;;;18.60;56.60;;;18.47;50.19;98676.44;5027511;28;20053;-41
2022/07/09 06:50:49;;;;;;;7.55;4.07;;;18.70;56.60;;;18.53;50.29;98674.03;5029475;28;20374;-41
2022/07/09 06:53:17;;;;;;;4.15;3.47;;;18.70;56.70;;;18.56;50.35;98682.59;5029806;28;20045;-41
2022/07/09 06:55:46;;;;;;;5.43;3.67;;;18.70;56.80;;;18.63;50.19;98678.13;5026008;28;20056;-42
2022/07/09 06:58:14;;;;;;;4.78;2.90;;;18.80;56.40;;;18.70;48.92;98681.72;5024879;28;20355;-42
2022/07/09 07:00:42;;;;;;;3.75;2.67;;;18.90;54.70;;;18.78;48.15;98683.47;5012572;28;20069;-40
2022/07/09 07:03:10;;;;;;;4.72;2.67;;;19.00;53.70;;;18.83;48.10;98673.00;5009116;28;20375;-41
2022/07/09 07:05:37;;;;;;;4.47;2.78;;;19.10;53.40;;;18.89;47.93;98666.84;5008222;28;20372;-41
2022/07/09 07:08:05;;;;;;;4.20;2.85;;;19.10;53.30;;;18.94;47.82;98660.03;5008641;28;20064;-41
2022/07/09 07:10:33;;;;;;;3.83;2.50;;;19.10;53.10;;;18.99;47.58;98668.41;5009125;28;20054;-43
2022/07/09 07:13:07;;;;;;;4.75;2.75;;;19.20;53.70;;;19.03;47.56;98667.00;5008840;28;20367;-42
2022/07/09 07:15:35;;;;;;;2.83;2.50;;;19.20;52.90;;;19.08;47.43;98664.56;5008787;28;20470;-42
2022/07/09 07:18:03;;;;;;;4.38;2.38;;;19.30;52.90;;;19.12;47.22;98665.84;5007769;28;20425;-43
2022/07/09 07:20:31;;;;;;;3.97;2.25;;;19.30;52.50;;;19.13;47.00;98663.97;5008693;28;20068;-41
2022/07/09 07:22:59;;;;;;;4.05;2.53;;;19.30;52.60;;;19.15;47.04;98673.56;5008072;28;20049;-41
2022/07/09 07:25:27;;;;;;;5.40;2.60;;;19.30;52.40;;;19.19;46.74;98676.72;5009162;28;20042;-43
2022/07/09 07:27:55;;;;;;;3.22;2.30;;;19.30;52.80;;;19.19;46.57;98674.88;5007653;28;20054;-41
2022/07/09 07:30:23;;;;;;;4.30;2.80;;;19.40;51.60;;;19.23;46.74;98670.75;5008859;28;20344;-41
2022/07/09 07:32:50;;;;;;;3.92;2.50;;;19.30;51.70;;;19.25;46.70;98670.53;5007947;28;20057;-43
2022/07/09 07:35:18;;;;;;;5.32;2.38;;;19.40;52.10;;;19.29;46.79;98669.16;5008616;28;20053;-41
2022/07/09 07:37:46;;;;;;;3.40;2.70;;;19.40;52.00;;;19.33;46.64;98675.84;5008543;28;20471;-42
2022/07/09 07:40:14;;;;;;;4.63;2.95;;;19.50;51.90;;;19.38;46.40;98672.53;5007757;28;20061;-41
2022/07/09 07:42:41;;;;;;;7.13;3.00;;;19.60;51.60;;;19.43;46.56;98667.41;5007722;28;20054;-42
2022/07/09 07:45:10;;;;;;;4.28;2.28;;;19.60;51.60;;;19.47;46.27;98668.69;5009417;28;20064;-42
2022/07/09 07:47:38;;;;;;;3.85;3.10;;;19.70;51.30;;;19.53;46.24;98667.09;5008277;28;20221;-42
2022/07/09 07:50:07;;;;;;;4.18;2.67;;;19.70;51.40;;;19.60;46.45;98676.06;5007846;28;20052;-43
2022/07/09 07:52:35;;;;;;;4.50;2.90;;;19.80;51.30;;;19.64;46.01;98667.41;5008113;28;20042;-45
2022/07/09 07:55:03;;;;;;;3.90;2.30;;;19.80;50.90;;;19.67;46.05;98661.59;5007694;28;20060;-42
2022/07/09 07:57:31;;;;;;;4.18;2.60;;;19.90;51.00;;;19.71;45.95;98653.94;5008360;28;20381;-42
2022/07/09 07:59:59;;;;;;;3.88;2.17;;;19.90;51.00;;;19.76;45.97;98656.09;5020857;28;20255;-43
2022/07/09 08:02:27;;;;;;;3.55;2.58;;;20.00;51.10;;;19.79;46.12;98664.66;5036224;28;20045;-45
2022/07/09 08:04:55;;;;;;;4.10;2.53;;;20.00;51.10;;;19.84;45.81;98658.66;5037547;28;20049;-42
2022/07/09 08:07:23;;;;;;;5.05;2.70;;;20.00;50.80;;;19.87;45.74;98666.34;5036431;28;20051;-43
2022/07/09 08:09:51;;;;;;;4.10;2.80;;;20.10;50.80;;;19.89;45.68;98652.66;5037568;28;20044;-42
2022/07/09 08:12:19;;;;;;;3.17;2.17;;;20.10;50.90;;;19.91;45.80;98658.69;5034472;28;20049;-42
2022/07/09 08:14:47;;;;;;;4.10;2.47;;;20.10;50.80;;;19.93;46.24;98656.63;5039102;28;20055;-42
2022/07/09 08:17:14;;;;;;;5.75;2.70;;;20.10;51.30;;;19.96;46.36;98658.94;5034956;28;20045;-44
2022/07/09 08:19:42;;;;;;;4.05;3.10;;;20.20;51.50;;;19.96;46.59;98656.25;5030730;28;20041;-43
2022/07/09 08:22:10;;;;;;;6.07;2.72;;;20.30;51.70;;;20.03;46.13;98652.56;5046136;28;20052;-41
2022/07/09 08:24:38;;;;;;;5.18;2.90;;;20.30;51.30;;;20.08;46.32;98651.13;5042697;28;20045;-42
2022/07/09 08:27:06;;;;;;;7.43;2.60;;;20.30;51.40;;;20.12;45.98;98647.81;5014870;28;20060;-41
2022/07/09 08:29:34;;;;;;;5.28;3.25;;;20.40;50.90;;;20.15;46.13;98647.44;5020344;28;20055;-43
2022/07/09 08:32:02;;;;;;;3.13;2.30;;;20.40;51.10;;;20.21;46.37;98652.03;5006994;28;20121;-41
2022/07/09 08:34:30;;;;;;;4.22;2.50;;;20.40;51.40;;;20.30;46.04;98646.47;5023488;28;20049;-41
2022/07/09 08:36:58;;;;;;;3.00;2.45;;;20.50;51.10;;;20.33;46.03;98646.91;5027556;28;20071;-41
2022/07/09 08:39:26;;;;;;;4.47;2.40;;;20.60;51.00;;;20.36;45.67;98646.50;5026540;28;20360;-42
2022/07/09 08:41:54;;;;;;;3.50;2.20;;;20.60;51.00;;;20.39;45.37;98637.16;5024014;28;20054;-41
2022/07/09 08:44:35;;;;;;;5.93;2.30;;;20.60;50.50;;;20.44;45.60;98642.81;5008204;28;20279;-42
2022/07/09 08:47:04;;;;;;;4.68;2.88;;;20.70;50.60;;;20.46;45.61;98635.34;5022228;28;20056;-43
2022/07/09 08:49:32;;;;;;;3.08;2.03;;;20.80;50.50;;;20.46;45.45;98636.16;5005233;28;20068;-42
2022/07/09 08:52:03;;;;;;;4.60;2.10;;;20.80;50.10;;;20.53;45.31;98636.22;5042010;28;20059;-42
2022/07/09 08:54:33;;;;;;;3.25;2.50;;;20.80;50.20;;;20.54;45.11;98632.44;5062928;28;20059;-44
2022/07/09 08:57:01;;;;;;;4.80;3.05;;;20.80;49.30;;;20.58;45.00;98628.31;5046821;28;20053;-42
2022/07/09 08:59:28;;;;;;;4.55;2.30;;;20.80;50.00;;;20.60;44.99;98631.66;5033217;28;20362;-42
2022/07/09 09:01:56;;;;;;;5.63;1.85;;;21.00;49.40;;;20.64;44.57;98627.53;5006994;28;20049;-43
2022/07/09 09:04:25;;;;;;;3.05;1.90;;;20.90;49.00;;;20.65;44.33;98621.09;5006793;28;20057;-43
2022/07/09 09:06:53;;;;;;;4.47;1.92;;;21.00;48.70;;;20.73;44.31;98617.38;5005955;28;20053;-43
2022/07/09 09:09:21;;;;;;;3.80;1.70;;;21.10;48.80;;;20.78;44.48;98614.03;5007630;28;20473;-43
2022/07/09 09:11:52;;;;;;;2.55;1.75;;;21.10;49.10;;;20.86;44.67;98611.19;5006638;28;20056;-41
2022/07/09 09:14:22;;;;;;;2.28;2.08;;;21.20;49.10;;;20.93;44.72;98612.00;5007615;28;20064;-43
2022/07/09 09:16:50;;;;;;;2.47;1.90;;;21.30;49.20;;;20.99;44.46;98604.94;5007157;28;20084;-44
2022/07/09 09:19:18;;;;;;;1.73;1.60;;;21.30;48.60;;;20.99;43.88;98603.06;5005649;28;20333;-45
2022/07/09 09:21:53;;;;;;;2.78;1.65;;;21.30;47.50;;;21.06;43.99;98596.84;5006871;28;20052;-42
2022/07/09 09:24:26;;;;;;;1.88;1.50;;;21.40;48.00;;;21.11;43.74;98602.47;5012204;28;20067;-42
2022/07/09 09:26:58;;;;;;;2.55;1.67;;;21.40;47.40;;;21.02;42.97;98594.53;5045572;28;20048;-42
2022/07/09 09:29:27;;;;;;;2.75;1.90;;;21.40;46.80;;;21.13;43.10;98598.53;5045473;28;20056;-42
2022/07/09 09:31:55;;;;;;;2.42;1.77;;;21.50;46.90;;;21.17;42.94;98599.78;5045453;28;20063;-42
2022/07/09 09:34:24;;;;;;;2.92;1.77;;;21.50;47.10;;;21.22;42.88;98593.75;5033710;28;20053;-42
2022/07/09 09:36:56;;;;;;;2.85;2.10;;;21.50;46.80;;;21.23;42.11;98595.41;5010330;28;20057;-43
2022/07/09 09:39:29;;;;;;;2.72;1.90;;;21.60;45.30;;;21.27;42.30;98591.25;5005965;28;20052;-41
2022/07/09 09:41:59;;;;;;;2.38;2.17;;;21.60;46.00;;;21.30;42.00;98590.81;5006278;28;20054;-42
2022/07/09 09:44:39;;;;;;;2.08;1.80;;;21.60;46.10;;;21.32;42.97;98593.34;5007015;28;20050;-40
2022/07/09 09:47:07;;;;;;;2.20;1.95;;;21.70;46.80;;;21.35;42.42;98592.94;5010811;28;20042;-41
2022/07/09 09:49:37;;;;;;;2.38;2.00;;;21.80;45.80;;;21.43;42.41;98590.00;5011338;28;20477;-41
2022/07/09 09:52:08;;;;;;;2.92;2.00;;;21.70;46.50;;;21.48;42.53;98590.25;5009234;28;20049;-41
2022/07/09 09:54:39;;;;;;;4.15;2.08;;;22.00;46.00;;;21.60;42.33;98588.59;5010356;28;20060;-41
2022/07/09 09:57:09;;;;;;;2.08;1.88;;;22.20;45.60;;;21.74;42.17;98580.44;5007276;28;20064;-41
2022/07/09 09:59:40;;;;;;;5.35;2.03;;;22.20;45.70;;;21.82;42.44;98575.63;5010658;28;20050;-42
2022/07/09 10:02:10;;;;;;;1.90;1.70;;;22.30;46.60;;;21.92;41.10;98583.31;5010142;28;20080;-41
2022/07/09 10:04:40;;;;;;;1.90;1.42;;;22.60;43.80;;;22.02;40.50;98575.59;5011139;28;20125;-41
2022/07/09 10:07:12;;;;;;;2.03;1.48;;;22.70;43.10;;;22.16;38.13;98579.09;5010416;28;20340;-41
2022/07/09 10:09:59;;;;;;;3.38;1.67;;;22.80;39.20;;;22.14;38.96;98577.63;5008125;28;20208;-40
2022/07/09 10:12:34;;;;;;;3.67;1.40;;;22.70;40.40;;;22.18;39.04;98579.72;5010411;28;20053;-41
2022/07/09 10:15:26;;;;;;;1.80;1.50;;;22.60;41.30;;;22.13;38.98;98575.97;5010621;28;20054;-41
2022/07/09 10:17:55;;;;;;;2.77;2.27;;;22.50;40.80;;;22.14;39.31;98572.19;5009131;28;20066;-41
2022/07/09 10:20:34;;;;;;;1.70;1.60;;;22.40;42.10;;;22.18;39.31;98568.88;5009486;28;20057;-40
2022/07/09 10:23:03;;;;;;;2.95;1.50;;;22.50;42.20;;;22.22;39.71;98570.09;5009942;28;20045;-40